Time;durP1;ratioP1;P1;durP2;ratioP2;P2;SDS_P1;SDS_P2;PMS_P1;PMS_P2;Temp;Humidity;BMP_temperature;BMP_pressure;BME280_temperature;BME280_humidity;BME280_pressure;Samples;Min_cycle;Max_cycle;Signal;HPM_P1;HPM_P2
2022/04/16 00:00:11;;;;;;;7.07;5.93;;;13.80;70.20;;;;;;5054388;28;20049;-76
2022/04/16 00:02:38;;;;;;;7.28;6.32;;;13.80;70.20;;;;;;5014141;28;20037;-76
2022/04/16 00:05:05;;;;;;;6.93;5.68;;;13.70;70.20;;;;;;4998635;28;20068;-78
2022/04/16 00:07:30;;;;;;;7.20;6.22;;;13.70;70.20;;;;;;5034328;28;20041;-78
2022/04/16 00:09:57;;;;;;;7.65;5.85;;;13.70;70.10;;;;;;5030913;28;20503;-76
2022/04/16 00:12:24;;;;;;;7.03;5.63;;;13.60;70.00;;;;;;5018524;28;20038;-77
2022/04/16 00:14:50;;;;;;;7.85;5.93;;;13.60;70.10;;;;;;5070662;28;20124;-78
2022/04/16 00:17:16;;;;;;;7.28;6.13;;;13.60;70.00;;;;;;5054860;28;20478;-77
2022/04/16 00:19:43;;;;;;;7.72;5.90;;;13.60;70.10;;;;;;5035741;28;20024;-76
2022/04/16 00:22:12;;;;;;;7.32;5.95;;;13.60;70.00;;;;;;5053382;28;20024;-76
2022/04/16 00:24:39;;;;;;;7.03;6.05;;;13.50;70.00;;;;;;5053856;28;20033;-77
2022/04/16 00:27:07;;;;;;;7.88;6.03;;;13.50;70.00;;;;;;5038561;28;20025;-77
2022/04/16 00:29:34;;;;;;;7.72;6.22;;;13.40;70.00;;;;;;5063086;28;20052;-78
2022/04/16 00:32:00;;;;;;;6.45;5.50;;;13.40;70.00;;;;;;5071889;28;20052;-77
2022/04/16 00:34:26;;;;;;;6.63;5.63;;;13.40;70.00;;;;;;5051813;28;20097;-76
2022/04/16 00:36:52;;;;;;;8.55;6.35;;;13.40;70.00;;;;;;5056042;28;20037;-78
2022/04/16 00:39:17;;;;;;;6.63;5.50;;;13.40;70.00;;;;;;5037231;28;20033;-77
2022/04/16 00:41:43;;;;;;;8.68;6.40;;;13.30;69.90;;;;;;5037922;28;20432;-77
2022/04/16 00:44:09;;;;;;;7.30;5.90;;;13.30;70.50;;;;;;5019455;28;20066;-78
2022/04/16 00:46:36;;;;;;;6.82;5.53;;;13.30;69.90;;;;;;5057310;28;20048;-76
2022/04/16 00:49:02;;;;;;;7.50;5.75;;;13.20;69.90;;;;;;5058221;28;20035;-77
2022/04/16 00:51:30;;;;;;;7.43;5.75;;;13.20;69.90;;;;;;5015425;28;20028;-76
2022/04/16 00:53:56;;;;;;;6.65;5.50;;;13.20;69.90;;;;;;5065495;28;20033;-76
2022/04/16 00:56:22;;;;;;;7.57;6.22;;;13.20;69.90;;;;;;5053709;28;20032;-76
2022/04/16 00:58:48;;;;;;;7.60;6.07;;;13.10;69.90;;;;;;5038285;28;20070;-76
2022/04/16 01:01:14;;;;;;;7.13;5.82;;;13.10;69.90;;;;;;5033511;28;20040;-76
2022/04/16 01:03:43;;;;;;;7.32;5.90;;;13.10;69.80;;;;;;5055545;28;20039;-76
2022/04/16 01:06:18;;;;;;;7.15;5.63;;;13.10;69.90;;;;;;5063173;28;20051;-76
2022/04/16 01:08:45;;;;;;;6.80;5.38;;;13.10;70.00;;;;;;5060215;28;20024;-77
2022/04/16 01:11:12;;;;;;;7.50;5.38;;;13.00;70.00;;;;;;5068281;28;20032;-76
2022/04/16 01:13:38;;;;;;;7.15;5.82;;;13.00;70.00;;;;;;5051579;28;20056;-76
2022/04/16 01:16:05;;;;;;;6.85;5.68;;;13.00;70.00;;;;;;5072529;28;20059;-77
2022/04/16 01:18:32;;;;;;;7.88;6.15;;;13.00;70.00;;;;;;5039902;28;20032;-76
2022/04/16 01:20:58;;;;;;;8.77;6.35;;;12.90;69.90;;;;;;5044852;28;20036;-77
2022/04/16 01:23:24;;;;;;;6.78;5.82;;;12.90;69.90;;;;;;5049494;28;20112;-77
2022/04/16 01:25:50;;;;;;;7.10;5.57;;;12.90;69.90;;;;;;5034534;28;20120;-76
2022/04/16 01:28:16;;;;;;;6.82;5.47;;;12.90;69.90;;;;;;5039667;28;20031;-76
2022/04/16 01:30:42;;;;;;;7.90;5.78;;;12.80;69.80;;;;;;5040162;28;20115;-77
2022/04/16 01:33:08;;;;;;;7.45;5.40;;;12.80;69.80;;;;;;5063851;28;20128;-76
2022/04/16 01:35:34;;;;;;;7.22;5.18;;;12.70;69.80;;;;;;5040809;28;20444;-75
2022/04/16 01:38:03;;;;;;;8.93;6.00;;;12.70;69.70;;;;;;5045813;28;20370;-75
2022/04/16 01:40:29;;;;;;;6.30;5.05;;;12.70;69.70;;;;;;5058603;28;20116;-75
2022/04/16 01:42:56;;;;;;;6.45;5.10;;;12.70;69.70;;;;;;5031983;28;20115;-76
2022/04/16 01:45:23;;;;;;;6.80;5.22;;;12.70;69.70;;;;;;5047090;28;20029;-75
2022/04/16 01:47:50;;;;;;;7.07;5.78;;;12.60;69.70;;;;;;5051877;28;20021;-76
2022/04/16 01:50:16;;;;;;;6.90;5.80;;;12.60;69.70;;;;;;5068088;28;20028;-77
2022/04/16 01:52:42;;;;;;;6.20;5.32;;;12.60;69.80;;;;;;5069390;28;20019;-77
2022/04/16 01:55:12;;;;;;;8.07;6.38;;;12.60;69.70;;;;;;5051684;28;20513;-77
2022/04/16 01:57:39;;;;;;;6.80;5.55;;;12.50;69.70;;;;;;5051688;28;20040;-77
2022/04/16 02:00:07;;;;;;;6.63;5.18;;;12.50;69.70;;;;;;5053721;28;20025;-76
2022/04/16 02:02:35;;;;;;;6.55;5.35;;;12.50;69.70;;;;;;5068377;28;20062;-76
2022/04/16 02:05:01;;;;;;;6.72;5.60;;;12.50;69.70;;;;;;5068453;28;20056;-76
2022/04/16 02:07:26;;;;;;;7.07;5.88;;;12.40;69.70;;;;;;5038120;28;20029;-75
2022/04/16 02:09:52;;;;;;;7.25;5.68;;;12.40;69.70;;;;;;5034446;28;20448;-75
2022/04/16 02:12:18;;;;;;;7.50;6.07;;;12.40;69.70;;;;;;5036135;28;20119;-77
2022/04/16 02:14:44;;;;;;;6.50;5.50;;;12.40;69.70;;;;;;5032949;28;20112;-76
2022/04/16 02:17:09;;;;;;;7.55;6.03;;;12.30;69.60;;;;;;5053113;28;20037;-75
2022/04/16 02:19:36;;;;;;;7.50;6.35;;;12.30;69.70;;;;;;5049804;28;20047;-76
2022/04/16 02:22:03;;;;;;;6.95;5.80;;;12.30;69.70;;;;;;5053968;28;20033;-75
2022/04/16 02:24:28;;;;;;;7.45;5.93;;;12.30;69.70;;;;;;5068153;28;20036;-77
2022/04/16 02:26:58;;;;;;;8.43;6.70;;;12.20;69.70;;;;;;5059125;28;20024;-76
2022/04/16 02:29:23;;;;;;;8.88;6.38;;;12.20;69.70;;;;;;5088656;28;20024;-76
2022/04/16 02:31:49;;;;;;;7.82;6.28;;;12.20;69.70;;;;;;5037503;28;20044;-76
2022/04/16 02:34:16;;;;;;;8.05;6.40;;;12.10;69.70;;;;;;5061369;28;20420;-75
2022/04/16 02:36:43;;;;;;;8.00;6.30;;;12.20;69.70;;;;;;5055358;28;20178;-75
2022/04/16 02:39:09;;;;;;;8.88;6.70;;;12.10;69.70;;;;;;5083309;28;20036;-75
2022/04/16 02:41:35;;;;;;;7.95;6.18;;;12.10;69.70;;;;;;5072553;28;20493;-76
2022/04/16 02:44:01;;;;;;;8.75;6.53;;;12.10;69.70;;;;;;5062037;28;20028;-76
2022/04/16 02:49:15;;;;;;;7.53;5.90;;;12.00;69.70;;;;;;5056566;28;20067;-76
2022/04/16 02:51:41;;;;;;;7.22;5.85;;;12.00;69.70;;;;;;5046781;28;20028;-76
2022/04/16 02:54:07;;;;;;;7.95;6.15;;;12.00;69.80;;;;;;5055304;28;20174;-76
2022/04/16 02:56:33;;;;;;;9.00;7.25;;;11.90;69.80;;;;;;5070302;28;20529;-76
2022/04/16 02:58:58;;;;;;;7.90;6.43;;;11.90;69.80;;;;;;5051039;28;20048;-76
2022/04/16 03:01:25;;;;;;;8.23;6.60;;;11.90;69.80;;;;;;5074388;28;20044;-76
2022/04/16 03:03:50;;;;;;;8.02;6.57;;;11.80;69.80;;;;;;5039286;28;20025;-76
2022/04/16 03:06:16;;;;;;;8.50;6.82;;;11.90;69.90;;;;;;5070506;28;20058;-76
2022/04/16 03:08:42;;;;;;;8.35;6.40;;;11.80;69.80;;;;;;5050526;28;20576;-76
2022/04/16 03:11:08;;;;;;;7.72;6.78;;;11.80;69.80;;;;;;5044431;28;20044;-75
2022/04/16 03:13:36;;;;;;;7.85;6.63;;;11.80;69.90;;;;;;5069773;28;20114;-77
2022/04/16 03:18:47;;;;;;;8.00;6.68;;;11.80;69.90;;;;;;5067532;28;20099;-75
2022/04/16 03:21:13;;;;;;;8.85;6.50;;;11.70;69.90;;;;;;5052520;28;20090;-75
2022/04/16 03:23:39;;;;;;;8.73;6.47;;;11.70;69.90;;;;;;5062788;28;20036;-76
2022/04/16 03:26:05;;;;;;;9.05;6.80;;;11.70;69.90;;;;;;5071279;28;20036;-79
2022/04/16 03:28:32;;;;;;;7.40;6.18;;;11.60;69.90;;;;;;5046212;28;20439;-76
2022/04/16 03:30:58;;;;;;;8.35;6.72;;;11.60;69.90;;;;;;5065724;28;20040;-76
2022/04/16 03:33:24;;;;;;;8.57;6.22;;;11.60;70.00;;;;;;5053595;28;20033;-76
2022/04/16 03:35:51;;;;;;;7.90;6.60;;;11.60;70.00;;;;;;5051592;28;20440;-76
2022/04/16 03:38:18;;;;;;;8.50;6.72;;;11.50;70.00;;;;;;5044052;28;20028;-76
2022/04/16 03:40:44;;;;;;;8.68;6.90;;;11.50;69.90;;;;;;5066801;28;20064;-76
2022/04/16 03:43:10;;;;;;;8.15;6.05;;;11.50;70.00;;;;;;5051264;28;20044;-77
2022/04/16 03:45:37;;;;;;;8.23;6.95;;;11.50;70.00;;;;;;5069240;28;20498;-76
2022/04/16 03:48:05;;;;;;;7.90;6.38;;;11.50;70.00;;;;;;5068665;28;20027;-76
2022/04/16 03:50:33;;;;;;;8.75;6.90;;;11.50;70.00;;;;;;5081319;28;20046;-76
2022/04/16 03:52:59;;;;;;;8.68;6.80;;;11.50;70.10;;;;;;5071774;28;20549;-77
2022/04/16 04:00:58;;;;;;;7.72;6.53;;;11.40;70.10;;;;;;5072756;28;20024;-76
2022/04/16 04:03:25;;;;;;;8.75;6.75;;;11.40;70.10;;;;;;5068808;28;20593;-76
2022/04/16 04:05:53;;;;;;;9.23;6.70;;;11.30;70.10;;;;;;5071658;28;20034;-76
2022/04/16 04:08:20;;;;;;;8.63;6.90;;;11.30;70.10;;;;;;5069441;28;20094;-76
2022/04/16 04:10:46;;;;;;;8.30;7.00;;;11.30;70.10;;;;;;5047124;28;20036;-76
2022/04/16 04:13:13;;;;;;;7.82;6.22;;;11.30;70.20;;;;;;5051247;28;20052;-76
2022/04/16 04:15:40;;;;;;;9.07;7.10;;;11.30;70.20;;;;;;5077184;28;20032;-77
2022/04/16 04:18:06;;;;;;;8.15;6.72;;;11.20;70.10;;;;;;5070320;28;20036;-76
2022/04/16 04:20:34;;;;;;;8.60;6.68;;;11.20;70.20;;;;;;5022868;28;20094;-76
2022/04/16 04:22:59;;;;;;;8.15;6.47;;;11.20;70.20;;;;;;5067197;28;20029;-76
2022/04/16 04:25:25;;;;;;;9.48;7.18;;;11.20;70.20;;;;;;5083029;28;20408;-76
2022/04/16 04:27:52;;;;;;;8.82;6.57;;;11.20;70.20;;;;;;5052133;28;20366;-76
2022/04/16 04:30:18;;;;;;;9.05;7.35;;;11.20;70.20;;;;;;5044498;28;20048;-77
2022/04/16 04:32:44;;;;;;;9.70;6.75;;;11.10;70.20;;;;;;5057245;28;20027;-75
2022/04/16 04:35:10;;;;;;;9.23;7.25;;;11.10;70.20;;;;;;5053426;28;20059;-77
2022/04/16 04:37:36;;;;;;;8.98;6.60;;;11.10;70.20;;;;;;5053124;28;20028;-76
2022/04/16 04:40:03;;;;;;;8.63;7.13;;;11.10;70.20;;;;;;5041859;28;20086;-76
2022/04/16 04:42:30;;;;;;;8.30;6.75;;;11.10;70.30;;;;;;5052275;28;20853;-76
2022/04/16 04:44:57;;;;;;;8.80;7.47;;;11.10;70.30;;;;;;5067630;28;20036;-77
2022/04/16 04:47:23;;;;;;;8.77;6.85;;;11.00;70.30;;;;;;5034634;28;20041;-77
2022/04/16 04:49:49;;;;;;;10.07;7.93;;;11.00;70.30;;;;;;5060425;28;20033;-76
2022/04/16 04:52:29;;;;;;;9.65;6.90;;;11.00;70.40;;;;;;5047348;28;20082;-76
2022/04/16 04:54:58;;;;;;;9.00;7.00;;;11.00;70.40;;;;;;5065236;28;20024;-76
2022/04/16 04:57:24;;;;;;;9.05;7.30;;;11.00;70.40;;;;;;5068530;28;20028;-76
2022/04/16 04:59:50;;;;;;;8.77;6.75;;;10.90;70.30;;;;;;5061197;28;20482;-76
2022/04/16 05:02:16;;;;;;;8.85;7.32;;;10.90;70.40;;;;;;5051850;28;20037;-77
2022/04/16 05:04:42;;;;;;;9.43;7.15;;;10.90;70.40;;;;;;5068447;28;20071;-76
2022/04/16 05:07:09;;;;;;;9.02;7.13;;;10.90;70.40;;;;;;5068228;28;20036;-76
2022/04/16 05:09:36;;;;;;;8.50;6.97;;;10.90;70.50;;;;;;5052677;28;20016;-76
2022/04/16 05:12:02;;;;;;;9.60;7.38;;;10.80;70.40;;;;;;5067035;28;20060;-76
2022/04/16 05:14:27;;;;;;;8.82;7.00;;;10.90;70.50;;;;;;5036559;28;20070;-79
2022/04/16 05:16:53;;;;;;;9.73;8.10;;;10.80;70.50;;;;;;5049797;28;20548;-76
2022/04/16 05:19:19;;;;;;;8.43;6.88;;;10.80;70.50;;;;;;5069797;28;20113;-76
2022/04/16 05:21:45;;;;;;;7.95;6.57;;;10.80;70.50;;;;;;5048481;28;20098;-76
2022/04/16 05:24:11;;;;;;;8.40;6.70;;;10.80;70.50;;;;;;5066982;28;20036;-77
2022/04/16 05:26:38;;;;;;;9.00;7.22;;;10.80;70.60;;;;;;5025334;28;20071;-77
2022/04/16 05:29:04;;;;;;;8.90;7.05;;;10.80;70.60;;;;;;5025334;28;20025;-75
2022/04/16 05:31:31;;;;;;;8.57;7.35;;;10.80;70.70;;;;;;5076251;28;20037;-75
2022/04/16 05:36:42;;;;;;;7.78;6.43;;;10.80;70.70;;;;;;5050454;28;20150;-76
2022/04/16 05:39:08;;;;;;;9.48;7.28;;;10.70;70.70;;;;;;5066388;28;20040;-76
2022/04/16 05:41:34;;;;;;;8.70;7.38;;;10.70;70.70;;;;;;5048673;28;20029;-77
2022/04/16 05:44:01;;;;;;;8.70;6.93;;;10.70;70.70;;;;;;5033471;28;20037;-76
2022/04/16 05:46:26;;;;;;;9.27;7.63;;;10.70;70.80;;;;;;5069414;28;20024;-77
2022/04/16 05:48:52;;;;;;;9.95;7.93;;;10.70;70.80;;;;;;5042776;28;20028;-77
2022/04/16 05:51:20;;;;;;;9.27;7.57;;;10.70;70.80;;;;;;5064125;28;20185;-77
2022/04/16 05:53:47;;;;;;;9.80;7.97;;;10.70;70.90;;;;;;5066222;28;20017;-77
2022/04/16 05:56:15;;;;;;;9.35;7.38;;;10.70;70.90;;;;;;5062956;28;20102;-76
2022/04/16 05:58:41;;;;;;;8.85;7.30;;;10.70;70.90;;;;;;5073679;28;20017;-77
2022/04/16 06:01:08;;;;;;;9.70;7.65;;;10.70;70.90;;;;;;5030611;28;20060;-77
2022/04/16 06:03:41;;;;;;;8.82;7.32;;;10.70;70.90;;;;;;5049316;28;20033;-76
2022/04/16 06:06:10;;;;;;;10.23;7.68;;;10.70;70.90;;;;;;5066744;28;20025;-77
2022/04/16 06:08:37;;;;;;;9.25;7.55;;;10.70;71.00;;;;;;5032111;28;20672;-76
2022/04/16 06:11:06;;;;;;;9.30;7.60;;;10.70;71.00;;;;;;5071915;28;20033;-74
2022/04/16 06:13:32;;;;;;;10.60;7.78;;;10.70;71.00;;;;;;5061080;28;20048;-75
2022/04/16 06:16:01;;;;;;;9.93;7.82;;;10.70;71.10;;;;;;5059153;28;20415;-76
2022/04/16 06:18:27;;;;;;;9.35;7.13;;;10.70;71.10;;;;;;5042262;28;20036;-75
2022/04/16 06:20:54;;;;;;;9.85;8.10;;;10.70;71.10;;;;;;5049232;28;20489;-76
2022/04/16 06:23:23;;;;;;;10.07;7.68;;;10.60;71.10;;;;;;5055621;28;20051;-75
2022/04/16 06:25:49;;;;;;;9.48;7.70;;;10.60;71.10;;;;;;5056190;28;20060;-76
2022/04/16 06:28:15;;;;;;;10.65;8.60;;;10.70;71.20;;;;;;5055382;28;20040;-73
2022/04/16 06:30:40;;;;;;;9.48;7.85;;;10.60;71.20;;;;;;5051783;28;20032;-75
2022/04/16 06:33:06;;;;;;;9.85;8.13;;;10.60;71.20;;;;;;5063717;28;20028;-76
2022/04/16 06:35:32;;;;;;;10.27;8.23;;;10.70;71.30;;;;;;5038715;28;20588;-77
2022/04/16 06:37:57;;;;;;;9.80;8.18;;;10.70;71.30;;;;;;5055627;28;20496;-76
2022/04/16 06:40:24;;;;;;;10.55;8.18;;;10.70;71.30;;;;;;5073092;28;20108;-76
2022/04/16 06:42:52;;;;;;;10.20;7.95;;;10.70;71.30;;;;;;5069827;28;20493;-76
2022/04/16 06:45:21;;;;;;;10.68;8.18;;;10.70;71.40;;;;;;5082017;28;20437;-76
2022/04/16 06:47:46;;;;;;;10.60;8.10;;;10.70;71.40;;;;;;5072209;28;20029;-77
2022/04/16 06:50:15;;;;;;;9.90;7.97;;;10.70;71.40;;;;;;5066277;28;20036;-76
2022/04/16 06:52:41;;;;;;;9.52;8.02;;;10.70;71.40;;;;;;5044256;28;20029;-76
2022/04/16 06:55:07;;;;;;;9.52;8.38;;;10.70;71.40;;;;;;5044265;28;20438;-75
2022/04/16 06:57:33;;;;;;;10.20;8.18;;;10.70;71.40;;;;;;5065079;28;20031;-78
2022/04/16 06:59:58;;;;;;;9.82;8.10;;;10.80;71.50;;;;;;5049818;28;20373;-77
2022/04/16 07:02:24;;;;;;;10.70;8.23;;;10.70;71.50;;;;;;5071717;28;20051;-76
2022/04/16 07:04:50;;;;;;;10.45;8.48;;;10.70;71.50;;;;;;5066624;28;20032;-78
2022/04/16 07:07:16;;;;;;;9.75;7.95;;;10.80;71.50;;;;;;5040244;28;20037;-74
2022/04/16 07:09:41;;;;;;;10.02;8.10;;;10.80;71.50;;;;;;5042964;28;20469;-79
2022/04/16 07:12:12;;;;;;;10.60;8.20;;;10.80;71.60;;;;;;5075783;28;20043;-75
2022/04/16 07:14:39;;;;;;;10.13;8.00;;;10.80;71.60;;;;;;5045696;28;20082;-75
2022/04/16 07:17:06;;;;;;;9.73;7.78;;;10.80;71.60;;;;;;5059344;28;20035;-74
2022/04/16 07:19:32;;;;;;;10.02;7.82;;;10.80;71.60;;;;;;5054405;28;20040;-76
2022/04/16 07:21:59;;;;;;;11.45;8.65;;;10.80;71.60;;;;;;5055684;28;20096;-76
2022/04/16 07:24:25;;;;;;;9.63;8.25;;;10.90;71.70;;;;;;5039159;28;20136;-74
2022/04/16 07:26:53;;;;;;;10.43;7.78;;;10.90;71.70;;;;;;5058825;28;20036;-75
2022/04/16 07:29:20;;;;;;;8.77;7.53;;;10.90;71.70;;;;;;5071877;28;20452;-75
2022/04/16 07:31:46;;;;;;;9.85;8.02;;;10.90;71.70;;;;;;5056565;28;20452;-75
2022/04/16 07:34:11;;;;;;;9.50;7.60;;;10.90;72.30;;;;;;5070609;28;20036;-75
2022/04/16 07:36:37;;;;;;;10.07;8.07;;;10.90;71.70;;;;;;5070645;28;20028;-75
2022/04/16 07:39:03;;;;;;;9.88;8.35;;;11.00;71.80;;;;;;5038244;28;20028;-76
2022/04/16 07:41:28;;;;;;;9.15;7.28;;;10.90;71.70;;;;;;5033745;28;20075;-77
2022/04/16 07:43:55;;;;;;;9.70;7.80;;;11.00;71.80;;;;;;5067069;28;20024;-76
2022/04/16 07:46:22;;;;;;;8.88;7.38;;;11.00;71.80;;;;;;5097078;28;20133;-76
2022/04/16 07:48:48;;;;;;;9.13;7.35;;;11.00;71.80;;;;;;5042958;28;20090;-76
2022/04/16 07:51:14;;;;;;;10.85;8.85;;;11.00;71.80;;;;;;5037434;28;20036;-76
2022/04/16 07:53:40;;;;;;;9.77;8.07;;;11.00;71.80;;;;;;5061387;28;20056;-78
2022/04/16 07:56:05;;;;;;;10.00;7.53;;;11.00;72.50;;;;;;5035978;28;20036;-76
2022/04/16 07:58:31;;;;;;;9.43;7.85;;;11.00;71.80;;;;;;5039778;28;20048;-73
2022/04/16 08:00:57;;;;;;;8.80;6.95;;;11.10;71.90;;;;;;5072070;28;20047;-75
2022/04/16 08:03:22;;;;;;;10.63;7.95;;;11.10;71.90;;;;;;5044101;28;20119;-74
2022/04/16 08:05:48;;;;;;;9.85;7.85;;;11.10;71.90;;;;;;5058781;28;20024;-75
2022/04/16 08:08:14;;;;;;;9.20;7.20;;;11.10;71.90;;;;;;5047250;28;20064;-76
2022/04/16 08:10:40;;;;;;;10.35;8.30;;;11.10;71.90;;;;;;5078892;28;20432;-74
2022/04/16 08:13:07;;;;;;;10.77;8.57;;;11.20;72.00;;;;;;5068650;28;20066;-77
2022/04/16 08:15:34;;;;;;;9.70;7.50;;;11.20;72.00;;;;;;5035842;28;20517;-78
2022/04/16 08:18:01;;;;;;;9.85;7.47;;;11.20;72.00;;;;;;5052579;28;20040;-77
2022/04/16 08:20:26;;;;;;;8.90;7.20;;;11.20;71.90;;;;;;5042357;28;20033;-78
2022/04/16 08:22:52;;;;;;;9.98;7.95;;;11.30;72.00;;;;;;5047084;28;20116;-77
2022/04/16 08:27:45;;;;;;;10.25;8.02;;;11.30;72.00;;;;;;5077011;28;20032;-78
2022/04/16 08:30:16;;;;;;;9.90;7.55;;;11.30;71.90;;;;;;5033043;28;20112;-76
2022/04/16 08:32:43;;;;;;;9.43;7.63;;;11.40;72.00;;;;;;5046215;28;20361;-78
2022/04/16 08:35:11;;;;;;;9.85;7.57;;;11.40;71.90;;;;;;5053265;28;20521;-78
2022/04/16 08:37:37;;;;;;;9.70;7.95;;;11.40;71.90;;;;;;5062885;28;20028;-77
2022/04/16 08:40:05;;;;;;;9.63;7.75;;;11.50;71.90;;;;;;5056689;28;20724;-76
2022/04/16 08:42:33;;;;;;;9.80;7.50;;;11.50;71.90;;;;;;5065140;28;20389;-78
2022/04/16 08:45:00;;;;;;;11.50;9.50;;;11.60;71.90;;;;;;5070998;28;20078;-77
2022/04/16 08:47:26;;;;;;;9.30;7.70;;;11.70;72.30;;;;;;5052498;28;20613;-77
2022/04/16 08:49:51;;;;;;;10.20;8.10;;;11.70;72.30;;;;;;5020604;28;20055;-77
2022/04/16 08:52:17;;;;;;;9.38;7.50;;;11.80;72.20;;;;;;5037405;28;20054;-78
2022/04/16 08:54:43;;;;;;;9.75;7.80;;;11.90;72.10;;;;;;5053261;28;20095;-77
2022/04/16 08:57:09;;;;;;;9.90;7.90;;;11.90;72.00;;;;;;5079828;28;20036;-78
2022/04/16 08:59:35;;;;;;;10.18;7.85;;;12.00;71.90;;;;;;5070062;28;20046;-77
2022/04/16 09:02:01;;;;;;;9.75;7.82;;;12.10;71.90;;;;;;5046253;28;20033;-78
2022/04/16 09:04:31;;;;;;;10.15;7.47;;;12.10;71.80;;;;;;5057868;28;20032;-78
2022/04/16 09:07:01;;;;;;;9.63;8.13;;;12.20;71.80;;;;;;5061309;28;20040;-76
2022/04/16 09:09:30;;;;;;;9.23;7.25;;;12.30;71.80;;;;;;5043629;28;20074;-75
2022/04/16 09:11:56;;;;;;;9.65;7.30;;;12.30;71.70;;;;;;5053576;28;20033;-76
2022/04/16 09:14:35;;;;;;;8.93;7.28;;;12.40;71.70;;;;;;5036432;28;20056;-77
2022/04/16 09:17:06;;;;;;;8.65;7.18;;;12.40;71.70;;;;;;5033027;28;20029;-77
2022/04/16 09:19:32;;;;;;;9.75;7.60;;;12.50;71.60;;;;;;5051956;28;20055;-77
2022/04/16 09:21:58;;;;;;;8.75;7.03;;;12.50;71.50;;;;;;5052775;28;20358;-78
2022/04/16 09:24:24;;;;;;;8.85;7.45;;;12.60;71.50;;;;;;5053385;28;20055;-76
2022/04/16 09:26:50;;;;;;;9.70;7.20;;;12.70;71.40;;;;;;5035447;28;20119;-76
2022/04/16 09:29:16;;;;;;;8.32;6.68;;;12.80;71.40;;;;;;5051354;28;20017;-76
2022/04/16 09:31:46;;;;;;;9.25;7.10;;;12.90;71.30;;;;;;5069706;28;20145;-76
2022/04/16 09:34:23;;;;;;;8.18;6.75;;;13.00;71.30;;;;;;5065495;28;20024;-76
2022/04/16 09:36:51;;;;;;;8.80;6.68;;;13.00;71.20;;;;;;5032354;28;20061;-75
2022/04/16 09:39:17;;;;;;;8.90;7.03;;;13.10;71.10;;;;;;5053574;28;20032;-77
2022/04/16 09:41:47;;;;;;;9.10;6.50;;;13.20;71.10;;;;;;5058303;28;20361;-78
2022/04/16 09:44:21;;;;;;;7.75;6.63;;;13.30;71.20;;;;;;5071886;28;20032;-77
2022/04/16 09:46:49;;;;;;;7.47;5.83;;;13.40;71.20;;;;;;5048544;28;20037;-78
2022/04/16 09:49:16;;;;;;;7.72;5.97;;;13.40;71.00;;;;;;5057015;28;20459;-75
2022/04/16 09:51:43;;;;;;;7.93;6.22;;;13.50;71.00;;;;;;5073160;28;20082;-76
2022/04/16 09:54:09;;;;;;;8.75;6.38;;;13.60;70.90;;;;;;5039609;28;20013;-76
2022/04/16 09:56:46;;;;;;;7.72;6.32;;;13.70;70.80;;;;;;5055285;28;20040;-77
2022/04/16 09:59:14;;;;;;;9.77;6.93;;;13.80;70.80;;;;;;5057073;28;20077;-78
2022/04/16 10:01:48;;;;;;;9.18;6.63;;;13.90;70.70;;;;;;5059739;28;20032;-75
2022/04/16 10:04:15;;;;;;;;;;;14.00;70.50;;;;;;5056913;28;20125;-76
2022/04/16 10:06:41;;;;;;;6.38;4.93;;;14.10;70.30;;;;;;5073404;28;20296;-75
2022/04/16 10:15:11;;;;;;;7.20;5.05;;;14.30;70.10;;;;;;5043459;28;20053;-76
2022/04/16 10:17:46;;;;;;;7.40;5.72;;;14.50;70.20;;;;;;5056006;28;20043;-76
2022/04/16 10:20:16;;;;;;;7.57;5.72;;;14.60;70.00;;;;;;5057940;28;20033;-81
2022/04/16 10:22:56;;;;;;;6.97;5.32;;;14.70;70.10;;;;;;5063485;28;20056;-77
2022/04/16 10:25:32;;;;;;;7.82;5.85;;;14.80;70.10;;;;;;5056368;28;20119;-77
2022/04/16 10:28:05;;;;;;;6.80;5.50;;;14.90;70.10;;;;;;5056240;28;20124;-77
2022/04/16 10:30:42;;;;;;;6.88;5.43;;;15.00;70.10;;;;;;5058440;28;20040;-77
2022/04/16 10:33:19;;;;;;;7.80;5.90;;;15.10;70.10;;;;;;5063515;28;20032;-75
2022/04/16 10:35:49;;;;;;;6.40;4.88;;;15.20;70.00;;;;;;5069451;28;20503;-75
2022/04/16 10:38:25;;;;;;;6.68;5.05;;;15.30;69.90;;;;;;5072653;28;20029;-74
2022/04/16 10:40:55;;;;;;;7.35;5.55;;;15.40;69.80;;;;;;5039299;28;20033;-77
2022/04/16 10:43:26;;;;;;;6.68;5.00;;;15.50;69.70;;;;;;5085662;28;20035;-77
2022/04/16 10:46:06;;;;;;;7.10;5.30;;;15.60;69.70;;;;;;5058974;28;20027;-75
2022/04/16 10:48:35;;;;;;;6.68;5.07;;;15.70;69.60;;;;;;5055806;28;20033;-75
2022/04/16 10:51:01;;;;;;;6.25;4.75;;;15.80;69.60;;;;;;5054949;28;20032;-75
2022/04/16 10:53:32;;;;;;;6.25;4.90;;;15.90;69.60;;;;;;5073027;28;20499;-74
2022/04/16 10:56:14;;;;;;;6.45;4.82;;;16.00;69.70;;;;;;5073478;28;20075;-74
2022/04/16 10:58:41;;;;;;;6.28;4.43;;;16.10;69.80;;;;;;5054531;28;20385;-76
2022/04/16 11:01:10;;;;;;;5.53;4.18;;;16.10;69.60;;;;;;5072786;28;20381;-76
2022/04/16 11:03:43;;;;;;;5.88;4.53;;;16.20;69.70;;;;;;5039157;28;20033;-78
2022/04/16 11:06:09;;;;;;;6.03;4.40;;;16.40;69.70;;;;;;5055689;28;20025;-79
2022/04/16 11:08:38;;;;;;;6.07;4.22;;;16.40;69.50;;;;;;5039004;28;20094;-77
2022/04/16 11:11:04;;;;;;;5.57;4.07;;;16.50;69.40;;;;;;5039250;28;20040;-75
2022/04/16 11:13:39;;;;;;;5.57;4.15;;;16.60;69.40;;;;;;5055103;28;20053;-78
2022/04/16 11:16:06;;;;;;;5.65;4.10;;;16.70;69.40;;;;;;5055069;28;20039;-78
2022/04/16 11:18:39;;;;;;;5.05;3.70;;;16.80;69.20;;;;;;5055575;28;20024;-74
2022/04/16 11:21:09;;;;;;;5.05;4.03;;;16.90;69.20;;;;;;5072776;28;20055;-76
2022/04/16 11:23:46;;;;;;;5.47;4.00;;;16.90;69.00;;;;;;5055284;28;20025;-77
2022/04/16 11:34:55;;;;;;;5.00;3.60;;;17.30;68.90;;;;;;5057023;28;20040;-76
2022/04/16 11:37:21;;;;;;;4.72;3.50;;;17.30;68.80;;;;;;5059312;28;20023;-75
2022/04/16 11:40:03;;;;;;;5.28;3.88;;;17.40;68.90;;;;;;5092580;28;20047;-75
2022/04/16 11:42:29;;;;;;;4.97;3.13;;;17.50;69.00;;;;;;5086719;28;20187;-76
2022/04/16 11:44:56;;;;;;;4.97;3.33;;;17.50;68.90;;;;;;5032589;28;20028;-73
2022/04/16 11:47:25;;;;;;;5.40;3.70;;;17.60;68.90;;;;;;5047103;28;20382;-76
2022/04/16 11:49:53;;;;;;;4.70;3.20;;;17.70;69.00;;;;;;5043165;28;20024;-76
2022/04/16 11:52:27;;;;;;;4.63;3.40;;;17.80;69.10;;;;;;5060925;28;20037;-75
2022/04/16 11:55:08;;;;;;;4.65;3.40;;;17.90;69.10;;;;;;5051543;28;20039;-77
2022/04/16 11:57:34;;;;;;;4.85;3.35;;;17.90;69.10;;;;;;5053093;28;20033;-76
2022/04/16 12:00:08;;;;;;;4.82;3.63;;;17.90;68.90;;;;;;5052725;28;20827;-76
2022/04/16 12:02:36;;;;;;;4.85;3.10;;;18.00;69.00;;;;;;5052370;28;20032;-76
2022/04/16 12:05:09;;;;;;;4.75;3.10;;;18.10;69.00;;;;;;5069551;28;20028;-77
2022/04/16 12:07:35;;;;;;;4.03;3.00;;;18.10;69.00;;;;;;5055219;28;20031;-75
2022/04/16 12:10:04;;;;;;;4.43;2.92;;;18.20;69.00;;;;;;5072737;28;20047;-75
2022/04/16 12:12:41;;;;;;;4.05;3.05;;;18.20;69.00;;;;;;5066914;28;20092;-76
2022/04/16 12:15:07;;;;;;;4.75;3.15;;;18.30;69.20;;;;;;5033768;28;20037;-74
2022/04/16 12:17:34;;;;;;;4.00;2.97;;;18.30;69.10;;;;;;5071512;28;20070;-76
2022/04/16 12:20:04;;;;;;;4.15;3.10;;;18.40;69.10;;;;;;5037448;28;20037;-77
2022/04/16 12:22:30;;;;;;;3.72;2.95;;;18.50;69.20;;;;;;5069266;28;20020;-76
2022/04/16 12:25:09;;;;;;;7.13;3.20;;;18.50;69.20;;;;;;5069901;28;20032;-76
2022/04/16 12:27:35;;;;;;;3.78;2.90;;;18.50;69.30;;;;;;5064747;28;20089;-76
2022/04/16 12:30:03;;;;;;;3.85;2.70;;;18.60;69.30;;;;;;5053020;28;20036;-76
2022/04/16 12:32:28;;;;;;;4.05;2.80;;;18.60;69.30;;;;;;5049134;28;20037;-75
2022/04/16 12:34:54;;;;;;;4.10;2.58;;;18.70;69.30;;;;;;5052864;28;20497;-75
2022/04/16 12:37:21;;;;;;;3.55;2.70;;;18.70;69.20;;;;;;5059852;28;20385;-75
2022/04/16 12:39:48;;;;;;;3.58;2.55;;;18.80;69.10;;;;;;5053435;28;20020;-77
2022/04/16 12:42:14;;;;;;;3.90;2.67;;;18.80;69.10;;;;;;5052485;28;20029;-76
2022/04/16 12:44:40;;;;;;;3.83;2.72;;;18.80;69.00;;;;;;5053000;28;20078;-76
2022/04/16 12:47:07;;;;;;;3.67;2.78;;;18.90;68.90;;;;;;5052577;28;20082;-76
2022/04/16 12:49:33;;;;;;;4.50;2.70;;;18.90;68.90;;;;;;5067326;28;20119;-76
2022/04/16 12:51:59;;;;;;;4.35;2.65;;;18.90;68.70;;;;;;5053984;28;20590;-75
2022/04/16 12:54:24;;;;;;;3.70;2.60;;;19.00;68.70;;;;;;5046435;28;20033;-76
2022/04/16 12:56:50;;;;;;;4.38;2.90;;;19.00;68.70;;;;;;5047953;28;20036;-76
2022/04/16 12:59:16;;;;;;;2.92;2.38;;;19.00;68.70;;;;;;5039901;28;20440;-78
2022/04/16 13:01:42;;;;;;;3.40;2.30;;;19.00;68.50;;;;;;5054026;28;20025;-77
2022/04/16 13:04:08;;;;;;;3.10;2.20;;;19.10;68.50;;;;;;5069261;28;20025;-77
2022/04/16 13:06:34;;;;;;;3.35;2.60;;;19.10;68.50;;;;;;5044309;28;20461;-78
2022/04/16 13:09:02;;;;;;;3.35;2.47;;;19.10;68.50;;;;;;5070693;28;20033;-77
2022/04/16 13:11:28;;;;;;;2.63;2.17;;;19.20;68.50;;;;;;5065499;28;20127;-78
2022/04/16 13:13:55;;;;;;;3.38;2.60;;;19.20;68.50;;;;;;5048561;28;20049;-76
2022/04/16 13:16:21;;;;;;;3.85;2.58;;;19.30;68.40;;;;;;5071904;28;20132;-76